sensor_id;sensor_type;location;lat;lon;timestamp;P1;durP1;ratioP1;P2;durP2;ratioP2
52542;SDS011;38449;52.696;6.186;2023-06-04T00:00:26;3.55;;;2.05;;
52542;SDS011;38449;52.696;6.186;2023-06-04T00:02:53;4.65;;;2.42;;
52542;SDS011;38449;52.696;6.186;2023-06-04T00:05:19;3.75;;;2.25;;
52542;SDS011;38449;52.696;6.186;2023-06-04T00:07:47;3.22;;;2.30;;
52542;SDS011;38449;52.696;6.186;2023-06-04T00:10:13;3.20;;;2.22;;
52542;SDS011;38449;52.696;6.186;2023-06-04T00:12:39;3.75;;;2.38;;
52542;SDS011;38449;52.696;6.186;2023-06-04T00:15:06;3.47;;;2.13;;
52542;SDS011;38449;52.696;6.186;2023-06-04T00:17:33;5.15;;;2.72;;
52542;SDS011;38449;52.696;6.186;2023-06-04T00:19:59;4.80;;;2.67;;
52542;SDS011;38449;52.696;6.186;2023-06-04T00:22:25;4.18;;;2.50;;
52542;SDS011;38449;52.696;6.186;2023-06-04T00:24:51;5.03;;;2.97;;
52542;SDS011;38449;52.696;6.186;2023-06-04T00:27:18;4.63;;;2.72;;
52542;SDS011;38449;52.696;6.186;2023-06-04T00:29:44;4.00;;;2.58;;
52542;SDS011;38449;52.696;6.186;2023-06-04T00:32:10;5.97;;;2.88;;
52542;SDS011;38449;52.696;6.186;2023-06-04T00:34:37;4.70;;;2.85;;
52542;SDS011;38449;52.696;6.186;2023-06-04T00:37:03;3.40;;;2.28;;
52542;SDS011;38449;52.696;6.186;2023-06-04T00:39:29;3.97;;;2.88;;
52542;SDS011;38449;52.696;6.186;2023-06-04T00:41:56;4.63;;;2.40;;
52542;SDS011;38449;52.696;6.186;2023-06-04T00:44:22;6.25;;;3.00;;
52542;SDS011;38449;52.696;6.186;2023-06-04T00:46:51;4.00;;;2.50;;
52542;SDS011;38449;52.696;6.186;2023-06-04T00:49:19;5.78;;;2.80;;
52542;SDS011;38449;52.696;6.186;2023-06-04T00:51:46;4.57;;;3.00;;
52542;SDS011;38449;52.696;6.186;2023-06-04T00:54:12;4.28;;;2.85;;
52542;SDS011;38449;52.696;6.186;2023-06-04T00:56:39;7.38;;;2.85;;
52542;SDS011;38449;52.696;6.186;2023-06-04T00:59:06;3.33;;;2.47;;
52542;SDS011;38449;52.696;6.186;2023-06-04T01:04:25;4.47;;;2.95;;
52542;SDS011;38449;52.696;6.186;2023-06-04T01:06:56;7.28;;;3.53;;
52542;SDS011;38449;52.696;6.186;2023-06-04T01:09:26;5.13;;;2.80;;
52542;SDS011;38449;52.696;6.186;2023-06-04T01:11:53;4.70;;;3.20;;
52542;SDS011;38449;52.696;6.186;2023-06-04T01:14:20;4.93;;;2.67;;
52542;SDS011;38449;52.696;6.186;2023-06-04T01:16:49;7.15;;;3.03;;
52542;SDS011;38449;52.696;6.186;2023-06-04T01:22:17;5.32;;;3.22;;
52542;SDS011;38449;52.696;6.186;2023-06-04T01:25:14;5.00;;;2.90;;
52542;SDS011;38449;52.696;6.186;2023-06-04T01:27:50;4.05;;;3.00;;
52542;SDS011;38449;52.696;6.186;2023-06-04T01:30:20;7.65;;;3.47;;
52542;SDS011;38449;52.696;6.186;2023-06-04T01:32:49;4.63;;;2.85;;
52542;SDS011;38449;52.696;6.186;2023-06-04T01:35:15;5.70;;;3.17;;
52542;SDS011;38449;52.696;6.186;2023-06-04T01:37:42;6.22;;;3.20;;
52542;SDS011;38449;52.696;6.186;2023-06-04T01:40:08;5.25;;;3.13;;
52542;SDS011;38449;52.696;6.186;2023-06-04T01:42:35;5.63;;;3.10;;
52542;SDS011;38449;52.696;6.186;2023-06-04T01:45:01;5.40;;;3.33;;
52542;SDS011;38449;52.696;6.186;2023-06-04T01:47:27;7.00;;;3.13;;
52542;SDS011;38449;52.696;6.186;2023-06-04T01:49:54;6.03;;;3.20;;
52542;SDS011;38449;52.696;6.186;2023-06-04T01:52:20;8.23;;;3.58;;
52542;SDS011;38449;52.696;6.186;2023-06-04T01:54:47;5.43;;;3.60;;
52542;SDS011;38449;52.696;6.186;2023-06-04T01:57:21;5.40;;;3.38;;
52542;SDS011;38449;52.696;6.186;2023-06-04T01:59:48;6.47;;;3.40;;
52542;SDS011;38449;52.696;6.186;2023-06-04T02:02:14;8.82;;;3.88;;
52542;SDS011;38449;52.696;6.186;2023-06-04T02:04:41;7.57;;;3.78;;
52542;SDS011;38449;52.696;6.186;2023-06-04T02:07:10;6.78;;;3.63;;
52542;SDS011;38449;52.696;6.186;2023-06-04T02:09:39;6.32;;;3.22;;
52542;SDS011;38449;52.696;6.186;2023-06-04T02:12:06;5.78;;;3.80;;
52542;SDS011;38449;52.696;6.186;2023-06-04T02:14:33;5.47;;;3.70;;
52542;SDS011;38449;52.696;6.186;2023-06-04T02:16:59;6.32;;;4.00;;
52542;SDS011;38449;52.696;6.186;2023-06-04T02:19:26;7.63;;;3.88;;
52542;SDS011;38449;52.696;6.186;2023-06-04T02:21:53;5.97;;;3.55;;
52542;SDS011;38449;52.696;6.186;2023-06-04T02:24:19;6.15;;;3.78;;
52542;SDS011;38449;52.696;6.186;2023-06-04T02:26:46;6.75;;;3.67;;
52542;SDS011;38449;52.696;6.186;2023-06-04T02:29:12;9.18;;;4.32;;
52542;SDS011;38449;52.696;6.186;2023-06-04T02:31:39;7.07;;;3.45;;
52542;SDS011;38449;52.696;6.186;2023-06-04T02:34:05;8.85;;;4.18;;
52542;SDS011;38449;52.696;6.186;2023-06-04T02:36:31;8.30;;;4.10;;
52542;SDS011;38449;52.696;6.186;2023-06-04T02:38:57;7.80;;;4.20;;
52542;SDS011;38449;52.696;6.186;2023-06-04T02:41:24;5.90;;;3.85;;
52542;SDS011;38449;52.696;6.186;2023-06-04T02:43:51;7.97;;;4.50;;
52542;SDS011;38449;52.696;6.186;2023-06-04T02:46:17;9.98;;;4.20;;
52542;SDS011;38449;52.696;6.186;2023-06-04T02:48:43;8.80;;;4.40;;
52542;SDS011;38449;52.696;6.186;2023-06-04T02:51:10;7.90;;;3.92;;
52542;SDS011;38449;52.696;6.186;2023-06-04T02:53:37;7.82;;;4.25;;
52542;SDS011;38449;52.696;6.186;2023-06-04T02:56:03;8.63;;;4.38;;
52542;SDS011;38449;52.696;6.186;2023-06-04T02:58:30;10.70;;;4.53;;
52542;SDS011;38449;52.696;6.186;2023-06-04T03:00:57;7.45;;;4.45;;
52542;SDS011;38449;52.696;6.186;2023-06-04T03:03:23;9.75;;;4.13;;
52542;SDS011;38449;52.696;6.186;2023-06-04T03:05:49;9.10;;;4.53;;
52542;SDS011;38449;52.696;6.186;2023-06-04T03:08:15;6.78;;;4.20;;
52542;SDS011;38449;52.696;6.186;2023-06-04T03:10:42;8.93;;;4.70;;
52542;SDS011;38449;52.696;6.186;2023-06-04T03:13:08;6.88;;;4.20;;
52542;SDS011;38449;52.696;6.186;2023-06-04T03:15:34;10.18;;;4.32;;
52542;SDS011;38449;52.696;6.186;2023-06-04T03:18:04;9.55;;;4.60;;
52542;SDS011;38449;52.696;6.186;2023-06-04T03:20:31;10.65;;;4.75;;
52542;SDS011;38449;52.696;6.186;2023-06-04T03:23:03;9.88;;;5.22;;
52542;SDS011;38449;52.696;6.186;2023-06-04T03:25:30;9.45;;;4.80;;
52542;SDS011;38449;52.696;6.186;2023-06-04T03:27:56;10.88;;;5.15;;
52542;SDS011;38449;52.696;6.186;2023-06-04T03:30:22;10.00;;;5.50;;
52542;SDS011;38449;52.696;6.186;2023-06-04T03:32:49;7.80;;;4.70;;
52542;SDS011;38449;52.696;6.186;2023-06-04T03:35:15;12.10;;;5.07;;
52542;SDS011;38449;52.696;6.186;2023-06-04T03:37:41;9.73;;;5.28;;
52542;SDS011;38449;52.696;6.186;2023-06-04T03:40:07;9.82;;;5.95;;
52542;SDS011;38449;52.696;6.186;2023-06-04T03:42:34;9.75;;;5.10;;
52542;SDS011;38449;52.696;6.186;2023-06-04T03:45:01;11.38;;;5.97;;
52542;SDS011;38449;52.696;6.186;2023-06-04T03:47:27;13.45;;;5.30;;
52542;SDS011;38449;52.696;6.186;2023-06-04T03:49:53;9.00;;;5.25;;
52542;SDS011;38449;52.696;6.186;2023-06-04T03:52:19;9.85;;;5.63;;
52542;SDS011;38449;52.696;6.186;2023-06-04T03:54:45;10.13;;;5.40;;
52542;SDS011;38449;52.696;6.186;2023-06-04T03:57:12;9.77;;;4.97;;
52542;SDS011;38449;52.696;6.186;2023-06-04T03:59:38;8.30;;;5.38;;
52542;SDS011;38449;52.696;6.186;2023-06-04T04:02:04;12.13;;;5.72;;
52542;SDS011;38449;52.696;6.186;2023-06-04T04:04:31;10.02;;;5.50;;
52542;SDS011;38449;52.696;6.186;2023-06-04T04:06:58;11.32;;;5.13;;
52542;SDS011;38449;52.696;6.186;2023-06-04T04:09:26;9.80;;;5.30;;
52542;SDS011;38449;52.696;6.186;2023-06-04T04:11:52;10.43;;;5.50;;
52542;SDS011;38449;52.696;6.186;2023-06-04T04:14:19;10.60;;;5.75;;
52542;SDS011;38449;52.696;6.186;2023-06-04T04:16:45;11.98;;;5.40;;
52542;SDS011;38449;52.696;6.186;2023-06-04T04:19:12;10.73;;;5.68;;
52542;SDS011;38449;52.696;6.186;2023-06-04T04:21:39;7.85;;;4.80;;
52542;SDS011;38449;52.696;6.186;2023-06-04T04:24:05;11.30;;;5.03;;
52542;SDS011;38449;52.696;6.186;2023-06-04T04:26:32;12.02;;;5.00;;
52542;SDS011;38449;52.696;6.186;2023-06-04T04:28:59;10.50;;;4.88;;
52542;SDS011;38449;52.696;6.186;2023-06-04T04:31:28;10.05;;;4.78;;
52542;SDS011;38449;52.696;6.186;2023-06-04T04:33:56;12.00;;;5.13;;
52542;SDS011;38449;52.696;6.186;2023-06-04T04:36:22;14.57;;;5.97;;
52542;SDS011;38449;52.696;6.186;2023-06-04T04:38:48;9.93;;;4.82;;
52542;SDS011;38449;52.696;6.186;2023-06-04T04:41:22;12.02;;;4.72;;
52542;SDS011;38449;52.696;6.186;2023-06-04T04:43:49;8.00;;;5.20;;
52542;SDS011;38449;52.696;6.186;2023-06-04T04:46:15;8.52;;;5.28;;
52542;SDS011;38449;52.696;6.186;2023-06-04T04:48:45;11.95;;;5.22;;
52542;SDS011;38449;52.696;6.186;2023-06-04T04:51:11;9.13;;;5.40;;
52542;SDS011;38449;52.696;6.186;2023-06-04T04:53:38;7.55;;;5.15;;
52542;SDS011;38449;52.696;6.186;2023-06-04T04:56:04;14.18;;;5.57;;
52542;SDS011;38449;52.696;6.186;2023-06-04T04:58:31;8.82;;;4.72;;
52542;SDS011;38449;52.696;6.186;2023-06-04T05:00:57;8.38;;;4.47;;
52542;SDS011;38449;52.696;6.186;2023-06-04T05:03:23;11.18;;;5.00;;
52542;SDS011;38449;52.696;6.186;2023-06-04T05:05:50;10.23;;;4.65;;
52542;SDS011;38449;52.696;6.186;2023-06-04T05:08:16;9.35;;;4.55;;
52542;SDS011;38449;52.696;6.186;2023-06-04T05:10:42;13.60;;;4.85;;
52542;SDS011;38449;52.696;6.186;2023-06-04T05:13:09;9.48;;;4.47;;
52542;SDS011;38449;52.696;6.186;2023-06-04T05:15:36;9.65;;;4.43;;
52542;SDS011;38449;52.696;6.186;2023-06-04T05:18:05;10.45;;;4.78;;
52542;SDS011;38449;52.696;6.186;2023-06-04T05:20:31;12.07;;;5.00;;
52542;SDS011;38449;52.696;6.186;2023-06-04T05:22:57;9.20;;;4.25;;
52542;SDS011;38449;52.696;6.186;2023-06-04T05:25:24;8.73;;;4.72;;
52542;SDS011;38449;52.696;6.186;2023-06-04T05:27:52;8.85;;;4.55;;
52542;SDS011;38449;52.696;6.186;2023-06-04T05:30:20;9.15;;;4.03;;
52542;SDS011;38449;52.696;6.186;2023-06-04T05:32:46;10.43;;;5.20;;
52542;SDS011;38449;52.696;6.186;2023-06-04T05:35:12;9.20;;;4.32;;
52542;SDS011;38449;52.696;6.186;2023-06-04T05:37:39;8.73;;;4.03;;
52542;SDS011;38449;52.696;6.186;2023-06-04T05:40:08;7.90;;;4.75;;
52542;SDS011;38449;52.696;6.186;2023-06-04T05:42:35;8.85;;;4.78;;
52542;SDS011;38449;52.696;6.186;2023-06-04T05:45:02;7.68;;;4.65;;
52542;SDS011;38449;52.696;6.186;2023-06-04T05:47:28;8.95;;;4.28;;
52542;SDS011;38449;52.696;6.186;2023-06-04T05:49:56;8.30;;;4.22;;
52542;SDS011;38449;52.696;6.186;2023-06-04T05:52:23;9.13;;;4.07;;
52542;SDS011;38449;52.696;6.186;2023-06-04T05:54:49;10.10;;;4.65;;
52542;SDS011;38449;52.696;6.186;2023-06-04T05:57:15;8.30;;;4.80;;
52542;SDS011;38449;52.696;6.186;2023-06-04T05:59:42;8.18;;;3.97;;
52542;SDS011;38449;52.696;6.186;2023-06-04T06:02:08;7.72;;;4.32;;
52542;SDS011;38449;52.696;6.186;2023-06-04T06:04:34;8.68;;;4.20;;
52542;SDS011;38449;52.696;6.186;2023-06-04T06:07:01;11.13;;;5.05;;
52542;SDS011;38449;52.696;6.186;2023-06-04T06:09:27;8.05;;;4.43;;
52542;SDS011;38449;52.696;6.186;2023-06-04T06:11:53;12.43;;;4.72;;
52542;SDS011;38449;52.696;6.186;2023-06-04T06:14:19;8.90;;;4.70;;
52542;SDS011;38449;52.696;6.186;2023-06-04T06:16:46;7.88;;;4.30;;
52542;SDS011;38449;52.696;6.186;2023-06-04T06:19:12;8.25;;;4.22;;
52542;SDS011;38449;52.696;6.186;2023-06-04T06:21:39;8.65;;;4.60;;
52542;SDS011;38449;52.696;6.186;2023-06-04T06:24:05;9.88;;;4.50;;
52542;SDS011;38449;52.696;6.186;2023-06-04T06:26:31;9.75;;;4.80;;
52542;SDS011;38449;52.696;6.186;2023-06-04T06:28:57;7.70;;;3.72;;
52542;SDS011;38449;52.696;6.186;2023-06-04T06:31:24;6.57;;;3.60;;
52542;SDS011;38449;52.696;6.186;2023-06-04T06:33:51;9.82;;;4.40;;
52542;SDS011;38449;52.696;6.186;2023-06-04T06:36:18;8.27;;;4.32;;
52542;SDS011;38449;52.696;6.186;2023-06-04T06:38:44;8.25;;;4.15;;
52542;SDS011;38449;52.696;6.186;2023-06-04T06:41:11;6.68;;;3.85;;
52542;SDS011;38449;52.696;6.186;2023-06-04T06:43:38;8.35;;;4.15;;
52542;SDS011;38449;52.696;6.186;2023-06-04T06:46:05;6.53;;;4.10;;
52542;SDS011;38449;52.696;6.186;2023-06-04T06:48:31;8.52;;;4.10;;
52542;SDS011;38449;52.696;6.186;2023-06-04T06:50:57;7.13;;;4.07;;
52542;SDS011;38449;52.696;6.186;2023-06-04T06:53:23;6.80;;;3.78;;
52542;SDS011;38449;52.696;6.186;2023-06-04T06:55:50;8.18;;;3.60;;
52542;SDS011;38449;52.696;6.186;2023-06-04T06:58:16;7.60;;;4.00;;
52542;SDS011;38449;52.696;6.186;2023-06-04T07:00:42;6.03;;;4.28;;
52542;SDS011;38449;52.696;6.186;2023-06-04T07:03:08;9.60;;;4.03;;
52542;SDS011;38449;52.696;6.186;2023-06-04T07:05:35;9.30;;;4.07;;
52542;SDS011;38449;52.696;6.186;2023-06-04T07:08:01;6.68;;;4.60;;
52542;SDS011;38449;52.696;6.186;2023-06-04T07:10:29;6.78;;;3.72;;
52542;SDS011;38449;52.696;6.186;2023-06-04T07:12:55;6.45;;;3.70;;
52542;SDS011;38449;52.696;6.186;2023-06-04T07:15:21;8.48;;;4.05;;
52542;SDS011;38449;52.696;6.186;2023-06-04T07:17:48;6.38;;;4.20;;
52542;SDS011;38449;52.696;6.186;2023-06-04T07:20:14;7.80;;;4.13;;
52542;SDS011;38449;52.696;6.186;2023-06-04T07:22:41;8.77;;;3.95;;
52542;SDS011;38449;52.696;6.186;2023-06-04T07:25:07;7.53;;;4.13;;
52542;SDS011;38449;52.696;6.186;2023-06-04T07:27:34;6.80;;;4.18;;
52542;SDS011;38449;52.696;6.186;2023-06-04T07:30:00;6.82;;;3.60;;
52542;SDS011;38449;52.696;6.186;2023-06-04T07:32:27;10.18;;;4.18;;
52542;SDS011;38449;52.696;6.186;2023-06-04T07:34:53;8.48;;;3.90;;
52542;SDS011;38449;52.696;6.186;2023-06-04T07:37:19;7.07;;;3.90;;
52542;SDS011;38449;52.696;6.186;2023-06-04T07:39:46;5.85;;;3.22;;
52542;SDS011;38449;52.696;6.186;2023-06-04T07:42:13;9.80;;;3.75;;
52542;SDS011;38449;52.696;6.186;2023-06-04T07:44:39;8.25;;;4.05;;
52542;SDS011;38449;52.696;6.186;2023-06-04T07:47:05;6.50;;;3.20;;
52542;SDS011;38449;52.696;6.186;2023-06-04T07:49:32;7.00;;;3.22;;
52542;SDS011;38449;52.696;6.186;2023-06-04T07:51:58;7.38;;;2.78;;
52542;SDS011;38449;52.696;6.186;2023-06-04T07:54:24;6.10;;;3.28;;
52542;SDS011;38449;52.696;6.186;2023-06-04T07:56:51;9.10;;;2.97;;
52542;SDS011;38449;52.696;6.186;2023-06-04T07:59:22;3.58;;;2.60;;
52542;SDS011;38449;52.696;6.186;2023-06-04T08:01:49;4.88;;;2.65;;
52542;SDS011;38449;52.696;6.186;2023-06-04T08:04:17;7.78;;;2.85;;
52542;SDS011;38449;52.696;6.186;2023-06-04T08:06:44;5.20;;;2.22;;
52542;SDS011;38449;52.696;6.186;2023-06-04T08:09:10;6.90;;;2.50;;
52542;SDS011;38449;52.696;6.186;2023-06-04T08:11:38;6.85;;;3.58;;
52542;SDS011;38449;52.696;6.186;2023-06-04T08:14:06;5.78;;;2.40;;
52542;SDS011;38449;52.696;6.186;2023-06-04T08:16:33;5.50;;;2.35;;
52542;SDS011;38449;52.696;6.186;2023-06-04T08:18:59;5.53;;;2.17;;
52542;SDS011;38449;52.696;6.186;2023-06-04T08:21:26;6.47;;;2.50;;
52542;SDS011;38449;52.696;6.186;2023-06-04T08:23:52;3.92;;;2.50;;
52542;SDS011;38449;52.696;6.186;2023-06-04T08:26:19;4.63;;;2.33;;
52542;SDS011;38449;52.696;6.186;2023-06-04T08:28:48;5.30;;;2.40;;
52542;SDS011;38449;52.696;6.186;2023-06-04T08:31:14;5.97;;;2.28;;
52542;SDS011;38449;52.696;6.186;2023-06-04T08:33:44;5.45;;;2.60;;
52542;SDS011;38449;52.696;6.186;2023-06-04T08:36:11;5.28;;;2.47;;
52542;SDS011;38449;52.696;6.186;2023-06-04T08:38:38;5.43;;;2.40;;
52542;SDS011;38449;52.696;6.186;2023-06-04T08:41:09;5.65;;;2.60;;
52542;SDS011;38449;52.696;6.186;2023-06-04T08:43:46;7.35;;;2.80;;
52542;SDS011;38449;52.696;6.186;2023-06-04T08:46:15;6.10;;;2.55;;
52542;SDS011;38449;52.696;6.186;2023-06-04T08:48:43;4.13;;;2.50;;
52542;SDS011;38449;52.696;6.186;2023-06-04T08:51:09;4.72;;;2.25;;
52542;SDS011;38449;52.696;6.186;2023-06-04T08:53:37;5.40;;;2.08;;
52542;SDS011;38449;52.696;6.186;2023-06-04T08:56:03;5.25;;;2.45;;
52542;SDS011;38449;52.696;6.186;2023-06-04T08:58:33;5.45;;;2.08;;
52542;SDS011;38449;52.696;6.186;2023-06-04T09:01:01;5.38;;;2.40;;
52542;SDS011;38449;52.696;6.186;2023-06-04T09:03:28;4.47;;;1.98;;
52542;SDS011;38449;52.696;6.186;2023-06-04T09:05:58;7.38;;;2.35;;
52542;SDS011;38449;52.696;6.186;2023-06-04T09:08:26;3.67;;;1.95;;
52542;SDS011;38449;52.696;6.186;2023-06-04T09:10:57;3.83;;;2.00;;
52542;SDS011;38449;52.696;6.186;2023-06-04T09:13:26;3.88;;;2.10;;
52542;SDS011;38449;52.696;6.186;2023-06-04T09:16:02;4.95;;;1.83;;
52542;SDS011;38449;52.696;6.186;2023-06-04T09:18:29;3.83;;;1.80;;
52542;SDS011;38449;52.696;6.186;2023-06-04T09:23:29;6.05;;;2.20;;
52542;SDS011;38449;52.696;6.186;2023-06-04T09:25:56;5.13;;;1.90;;
52542;SDS011;38449;52.696;6.186;2023-06-04T09:28:22;5.50;;;2.13;;
52542;SDS011;38449;52.696;6.186;2023-06-04T09:30:54;4.57;;;2.13;;
52542;SDS011;38449;52.696;6.186;2023-06-04T09:33:20;3.50;;;1.70;;
52542;SDS011;38449;52.696;6.186;2023-06-04T09:35:53;4.60;;;1.75;;
52542;SDS011;38449;52.696;6.186;2023-06-04T09:38:21;3.17;;;1.73;;
52542;SDS011;38449;52.696;6.186;2023-06-04T09:40:47;6.65;;;2.20;;
52542;SDS011;38449;52.696;6.186;2023-06-04T09:43:21;3.53;;;2.05;;
52542;SDS011;38449;52.696;6.186;2023-06-04T09:45:51;5.38;;;2.08;;
52542;SDS011;38449;52.696;6.186;2023-06-04T09:48:19;4.53;;;1.90;;
52542;SDS011;38449;52.696;6.186;2023-06-04T09:50:48;3.00;;;1.77;;
52542;SDS011;38449;52.696;6.186;2023-06-04T09:53:18;3.28;;;1.80;;
52542;SDS011;38449;52.696;6.186;2023-06-04T09:55:58;4.80;;;1.88;;
52542;SDS011;38449;52.696;6.186;2023-06-04T09:58:25;6.75;;;2.20;;
52542;SDS011;38449;52.696;6.186;2023-06-04T10:00:52;3.58;;;1.90;;
52542;SDS011;38449;52.696;6.186;2023-06-04T10:03:21;4.20;;;1.92;;
52542;SDS011;38449;52.696;6.186;2023-06-04T10:05:52;3.67;;;1.88;;
52542;SDS011;38449;52.696;6.186;2023-06-04T10:08:20;3.58;;;2.00;;
52542;SDS011;38449;52.696;6.186;2023-06-04T10:13:20;4.28;;;1.90;;
52542;SDS011;38449;52.696;6.186;2023-06-04T10:15:48;3.35;;;1.85;;
52542;SDS011;38449;52.696;6.186;2023-06-04T10:18:16;5.18;;;2.17;;
52542;SDS011;38449;52.696;6.186;2023-06-04T10:20:43;5.55;;;2.00;;
52542;SDS011;38449;52.696;6.186;2023-06-04T10:23:10;4.40;;;2.20;;
52542;SDS011;38449;52.696;6.186;2023-06-04T10:25:37;4.68;;;1.92;;
52542;SDS011;38449;52.696;6.186;2023-06-04T10:28:03;3.05;;;1.73;;
52542;SDS011;38449;52.696;6.186;2023-06-04T10:30:31;3.30;;;2.10;;
52542;SDS011;38449;52.696;6.186;2023-06-04T10:32:58;4.57;;;2.05;;
52542;SDS011;38449;52.696;6.186;2023-06-04T10:38:07;5.72;;;2.00;;
52542;SDS011;38449;52.696;6.186;2023-06-04T10:40:35;6.50;;;2.25;;
52542;SDS011;38449;52.696;6.186;2023-06-04T10:43:05;3.30;;;1.73;;
52542;SDS011;38449;52.696;6.186;2023-06-04T10:45:36;3.45;;;1.95;;
52542;SDS011;38449;52.696;6.186;2023-06-04T10:48:04;5.13;;;1.80;;
52542;SDS011;38449;52.696;6.186;2023-06-04T10:50:32;3.72;;;1.98;;
52542;SDS011;38449;52.696;6.186;2023-06-04T10:52:59;4.60;;;1.80;;
52542;SDS011;38449;52.696;6.186;2023-06-04T10:55:29;3.95;;;2.00;;
52542;SDS011;38449;52.696;6.186;2023-06-04T10:57:56;3.58;;;2.10;;
52542;SDS011;38449;52.696;6.186;2023-06-04T11:00:36;4.97;;;1.73;;
52542;SDS011;38449;52.696;6.186;2023-06-04T11:03:06;4.60;;;1.67;;
52542;SDS011;38449;52.696;6.186;2023-06-04T11:05:37;5.68;;;1.80;;
52542;SDS011;38449;52.696;6.186;2023-06-04T11:08:05;3.30;;;1.92;;
52542;SDS011;38449;52.696;6.186;2023-06-04T11:10:38;4.13;;;2.25;;
52542;SDS011;38449;52.696;6.186;2023-06-04T11:13:09;4.10;;;1.90;;
52542;SDS011;38449;52.696;6.186;2023-06-04T11:15:45;4.82;;;1.92;;
52542;SDS011;38449;52.696;6.186;2023-06-04T11:18:14;4.78;;;1.92;;
52542;SDS011;38449;52.696;6.186;2023-06-04T11:20:44;3.65;;;2.00;;
52542;SDS011;38449;52.696;6.186;2023-06-04T11:23:15;6.60;;;1.98;;
52542;SDS011;38449;52.696;6.186;2023-06-04T11:25:42;5.03;;;2.03;;
52542;SDS011;38449;52.696;6.186;2023-06-04T11:28:15;4.15;;;2.25;;
52542;SDS011;38449;52.696;6.186;2023-06-04T11:30:43;4.45;;;1.70;;
52542;SDS011;38449;52.696;6.186;2023-06-04T11:33:10;4.35;;;1.98;;
52542;SDS011;38449;52.696;6.186;2023-06-04T11:35:40;3.10;;;1.90;;
52542;SDS011;38449;52.696;6.186;2023-06-04T11:38:08;4.22;;;1.90;;
52542;SDS011;38449;52.696;6.186;2023-06-04T11:40:35;5.10;;;2.10;;
52542;SDS011;38449;52.696;6.186;2023-06-04T11:43:01;3.83;;;1.80;;
52542;SDS011;38449;52.696;6.186;2023-06-04T11:45:28;4.43;;;2.20;;
52542;SDS011;38449;52.696;6.186;2023-06-04T11:47:56;3.85;;;1.60;;
52542;SDS011;38449;52.696;6.186;2023-06-04T11:50:23;5.13;;;1.98;;
52542;SDS011;38449;52.696;6.186;2023-06-04T11:52:53;3.75;;;1.90;;
52542;SDS011;38449;52.696;6.186;2023-06-04T11:55:20;4.32;;;1.90;;
52542;SDS011;38449;52.696;6.186;2023-06-04T11:57:46;3.65;;;1.83;;
52542;SDS011;38449;52.696;6.186;2023-06-04T12:00:14;4.55;;;1.98;;
52542;SDS011;38449;52.696;6.186;2023-06-04T12:02:52;3.55;;;2.03;;
52542;SDS011;38449;52.696;6.186;2023-06-04T12:05:20;3.83;;;1.80;;
52542;SDS011;38449;52.696;6.186;2023-06-04T12:08:03;4.97;;;1.77;;
52542;SDS011;38449;52.696;6.186;2023-06-04T12:10:38;4.28;;;1.85;;
52542;SDS011;38449;52.696;6.186;2023-06-04T12:13:09;3.58;;;1.95;;
52542;SDS011;38449;52.696;6.186;2023-06-04T12:15:35;5.65;;;1.92;;
52542;SDS011;38449;52.696;6.186;2023-06-04T12:18:02;3.75;;;1.83;;
52542;SDS011;38449;52.696;6.186;2023-06-04T12:20:34;4.55;;;1.80;;
52542;SDS011;38449;52.696;6.186;2023-06-04T12:23:02;3.30;;;1.95;;
52542;SDS011;38449;52.696;6.186;2023-06-04T12:25:29;2.78;;;1.88;;
52542;SDS011;38449;52.696;6.186;2023-06-04T12:27:56;3.95;;;2.00;;
52542;SDS011;38449;52.696;6.186;2023-06-04T12:30:23;3.10;;;1.80;;
52542;SDS011;38449;52.696;6.186;2023-06-04T12:33:03;2.95;;;1.80;;
52542;SDS011;38449;52.696;6.186;2023-06-04T12:35:30;3.85;;;1.90;;
52542;SDS011;38449;52.696;6.186;2023-06-04T12:37:56;3.88;;;2.00;;
52542;SDS011;38449;52.696;6.186;2023-06-04T12:40:22;4.00;;;1.80;;
52542;SDS011;38449;52.696;6.186;2023-06-04T12:42:51;2.55;;;1.70;;
52542;SDS011;38449;52.696;6.186;2023-06-04T12:45:18;5.93;;;2.20;;
52542;SDS011;38449;52.696;6.186;2023-06-04T12:47:44;3.05;;;1.70;;
52542;SDS011;38449;52.696;6.186;2023-06-04T12:50:12;3.28;;;1.80;;
52542;SDS011;38449;52.696;6.186;2023-06-04T12:52:38;5.32;;;2.00;;
52542;SDS011;38449;52.696;6.186;2023-06-04T12:55:05;3.72;;;2.00;;
52542;SDS011;38449;52.696;6.186;2023-06-04T12:57:32;3.38;;;2.00;;
52542;SDS011;38449;52.696;6.186;2023-06-04T12:59:58;3.35;;;2.03;;
52542;SDS011;38449;52.696;6.186;2023-06-04T13:02:25;5.43;;;1.92;;
52542;SDS011;38449;52.696;6.186;2023-06-04T13:04:51;3.50;;;1.92;;
52542;SDS011;38449;52.696;6.186;2023-06-04T13:07:21;2.92;;;1.80;;
52542;SDS011;38449;52.696;6.186;2023-06-04T13:09:48;3.95;;;1.90;;
52542;SDS011;38449;52.696;6.186;2023-06-04T13:12:14;5.57;;;2.03;;
52542;SDS011;38449;52.696;6.186;2023-06-04T13:14:40;3.78;;;1.90;;
52542;SDS011;38449;52.696;6.186;2023-06-04T13:17:07;4.53;;;2.00;;
52542;SDS011;38449;52.696;6.186;2023-06-04T13:19:35;3.97;;;1.65;;
52542;SDS011;38449;52.696;6.186;2023-06-04T13:22:01;2.85;;;1.80;;
52542;SDS011;38449;52.696;6.186;2023-06-04T13:24:28;3.03;;;2.00;;
52542;SDS011;38449;52.696;6.186;2023-06-04T13:26:54;3.70;;;1.92;;
52542;SDS011;38449;52.696;6.186;2023-06-04T13:29:21;2.70;;;1.85;;
52542;SDS011;38449;52.696;6.186;2023-06-04T13:31:48;3.00;;;1.80;;
52542;SDS011;38449;52.696;6.186;2023-06-04T13:34:15;3.70;;;1.88;;
52542;SDS011;38449;52.696;6.186;2023-06-04T13:36:41;3.08;;;1.80;;
52542;SDS011;38449;52.696;6.186;2023-06-04T13:39:08;3.83;;;1.80;;
52542;SDS011;38449;52.696;6.186;2023-06-04T13:41:34;4.22;;;2.42;;
52542;SDS011;38449;52.696;6.186;2023-06-04T13:44:00;4.82;;;2.00;;
52542;SDS011;38449;52.696;6.186;2023-06-04T13:46:26;2.95;;;1.70;;
52542;SDS011;38449;52.696;6.186;2023-06-04T13:48:52;4.50;;;2.20;;
52542;SDS011;38449;52.696;6.186;2023-06-04T13:51:19;5.03;;;3.40;;
52542;SDS011;38449;52.696;6.186;2023-06-04T13:53:45;4.65;;;2.03;;
52542;SDS011;38449;52.696;6.186;2023-06-04T13:56:11;3.65;;;1.90;;
52542;SDS011;38449;52.696;6.186;2023-06-04T13:58:38;2.97;;;1.85;;
52542;SDS011;38449;52.696;6.186;2023-06-04T14:01:04;4.03;;;1.92;;
52542;SDS011;38449;52.696;6.186;2023-06-04T14:03:31;4.20;;;1.75;;
52542;SDS011;38449;52.696;6.186;2023-06-04T14:05:57;3.58;;;2.05;;
52542;SDS011;38449;52.696;6.186;2023-06-04T14:08:25;3.15;;;1.73;;
52542;SDS011;38449;52.696;6.186;2023-06-04T14:10:52;4.43;;;1.88;;
52542;SDS011;38449;52.696;6.186;2023-06-04T14:13:20;4.88;;;1.60;;
52542;SDS011;38449;52.696;6.186;2023-06-04T14:15:47;3.75;;;1.90;;
52542;SDS011;38449;52.696;6.186;2023-06-04T14:18:13;4.05;;;1.90;;
52542;SDS011;38449;52.696;6.186;2023-06-04T14:20:39;4.00;;;2.10;;
52542;SDS011;38449;52.696;6.186;2023-06-04T14:23:05;9.32;;;3.92;;
52542;SDS011;38449;52.696;6.186;2023-06-04T14:25:32;3.47;;;2.25;;
52542;SDS011;38449;52.696;6.186;2023-06-04T14:28:02;3.22;;;1.90;;
52542;SDS011;38449;52.696;6.186;2023-06-04T14:30:28;4.32;;;2.00;;
52542;SDS011;38449;52.696;6.186;2023-06-04T14:32:54;5.32;;;2.13;;
52542;SDS011;38449;52.696;6.186;2023-06-04T14:35:21;3.05;;;2.10;;
52542;SDS011;38449;52.696;6.186;2023-06-04T14:37:47;4.78;;;2.28;;
52542;SDS011;38449;52.696;6.186;2023-06-04T14:40:14;3.08;;;1.77;;
52542;SDS011;38449;52.696;6.186;2023-06-04T14:42:40;3.55;;;1.88;;
52542;SDS011;38449;52.696;6.186;2023-06-04T14:45:07;5.07;;;1.75;;
52542;SDS011;38449;52.696;6.186;2023-06-04T14:47:33;4.53;;;2.22;;
52542;SDS011;38449;52.696;6.186;2023-06-04T14:50:00;4.38;;;2.35;;
52542;SDS011;38449;52.696;6.186;2023-06-04T14:52:26;4.35;;;2.00;;
52542;SDS011;38449;52.696;6.186;2023-06-04T14:54:53;5.78;;;2.08;;
52542;SDS011;38449;52.696;6.186;2023-06-04T14:57:20;3.13;;;1.75;;
52542;SDS011;38449;52.696;6.186;2023-06-04T14:59:47;4.50;;;2.22;;